Time;durP1;ratioP1;P1;durP2;ratioP2;P2;SDS_P1;SDS_P2;PMS_P1;PMS_P2;Temp;Humidity;BMP_temperature;BMP_pressure;BME280_temperature;BME280_humidity;BME280_pressure;Samples;Min_cycle;Max_cycle;Signal;HPM_P1;HPM_P2
2022/05/02 00:01:57;;;;;;;24.08;18.60;;;;;;;6.78;78.01;102091.69;5077360;28;20035;-71
2022/05/02 00:04:22;;;;;;;27.98;18.20;;;;;;;6.79;77.93;102082.19;5089920;28;20032;-72
2022/05/02 00:06:48;;;;;;;26.48;18.63;;;;;;;6.76;78.16;102077.81;5086681;28;20097;-72
2022/05/02 00:09:13;;;;;;;26.45;17.50;;;;;;;6.67;78.79;102085.50;5072637;28;20517;-71
2022/05/02 00:11:38;;;;;;;28.55;18.23;;;;;;;6.68;78.66;102086.38;5074133;28;20024;-72
2022/05/02 00:14:03;;;;;;;22.55;17.60;;;;;;;6.67;78.46;102085.50;5086375;28;20102;-71
2022/05/02 00:16:29;;;;;;;23.40;16.75;;;;;;;6.64;79.00;102079.41;5091720;28;20379;-72
2022/05/02 00:18:54;;;;;;;23.85;17.08;;;;;;;6.59;78.92;102076.75;5091618;28;20111;-72
2022/05/02 00:21:19;;;;;;;25.20;17.60;;;;;;;6.49;79.75;102075.78;5075754;28;20044;-72
2022/05/02 00:23:44;;;;;;;24.88;18.75;;;;;;;6.52;80.32;102077.53;5088021;28;20102;-71
2022/05/02 00:26:10;;;;;;;22.80;17.65;;;;;;;6.45;80.46;102073.13;5090270;28;20036;-72
2022/05/02 00:28:35;;;;;;;23.25;18.02;;;;;;;6.42;80.68;102076.53;5075980;28;20068;-71
2022/05/02 00:31:00;;;;;;;25.98;18.05;;;;;;;6.33;80.61;102074.69;5071813;28;20476;-71
2022/05/02 00:33:26;;;;;;;25.13;17.92;;;;;;;6.32;80.35;102070.38;5086797;28;20031;-71
2022/05/02 00:35:51;;;;;;;26.75;17.80;;;;;;;6.35;80.43;102063.50;5071136;28;20540;-71
2022/05/02 00:38:16;;;;;;;23.88;17.80;;;;;;;6.36;80.17;102067.81;5078246;28;20023;-71
2022/05/02 00:40:42;;;;;;;24.77;17.63;;;;;;;6.32;80.34;102065.19;5091996;28;20028;-71
2022/05/02 00:43:07;;;;;;;25.83;18.60;;;;;;;6.24;80.59;102056.44;5090601;28;20036;-71
2022/05/02 00:45:39;;;;;;;26.00;17.92;;;;;;;6.20;80.44;102062.41;5088810;28;20028;-71
2022/05/02 00:48:05;;;;;;;26.05;18.90;;;;;;;6.21;80.40;102063.28;5088426;28;20020;-72
2022/05/02 00:50:34;;;;;;;25.73;18.70;;;;;;;6.14;81.18;102059.75;5090028;28;20601;-72
2022/05/02 00:53:00;;;;;;;26.17;18.67;;;;;;;6.17;80.78;102061.50;5085941;28;20471;-71
2022/05/02 00:55:26;;;;;;;26.23;18.98;;;;;;;6.17;80.88;102056.34;5091733;28;20042;-71
2022/05/02 00:57:53;;;;;;;27.17;19.08;;;;;;;6.13;80.78;102054.56;5089179;28;20127;-71
2022/05/02 01:00:18;;;;;;;30.08;20.52;;;;;;;6.08;81.09;102065.72;5088849;28;20032;-71
2022/05/02 01:02:43;;;;;;;29.02;20.10;;;;;;;6.05;81.09;102051.88;5086984;28;20012;-71
2022/05/02 01:05:08;;;;;;;27.10;19.63;;;;;;;6.03;80.94;102053.56;5091566;28;20095;-71
2022/05/02 01:07:34;;;;;;;28.02;19.55;;;;;;;6.03;81.21;102046.66;5088876;28;20112;-71
2022/05/02 01:10:00;;;;;;;26.70;18.33;;;;;;;5.98;81.61;102055.19;5083694;28;20038;-71
2022/05/02 01:12:25;;;;;;;27.02;18.80;;;;;;;5.98;81.49;102055.19;5089449;28;20032;-72
2022/05/02 01:14:53;;;;;;;24.25;18.75;;;;;;;5.94;81.95;102049.09;5089799;28;20415;-71
2022/05/02 01:17:19;;;;;;;27.20;19.42;;;;;;;5.84;82.27;102048.06;5089891;28;20055;-71
2022/05/02 01:19:45;;;;;;;32.70;19.48;;;;;;;5.82;82.36;102056.63;5091364;28;20452;-71
2022/05/02 01:22:11;;;;;;;26.77;18.52;;;;;;;5.78;82.41;102042.78;5084034;28;20078;-71
2022/05/02 01:24:39;;;;;;;27.92;18.67;;;;;;;5.75;82.73;102045.31;5083388;28;20472;-71
2022/05/02 01:27:05;;;;;;;25.38;19.42;;;;;;;5.73;82.78;102044.44;5077339;28;20035;-72
2022/05/02 01:29:32;;;;;;;26.67;19.55;;;;;;;5.73;82.77;102041.84;5084051;28;20025;-72
2022/05/02 01:31:58;;;;;;;27.00;19.40;;;;;;;5.66;82.84;102046.88;5077215;28;20024;-72
2022/05/02 01:34:24;;;;;;;24.52;18.30;;;;;;;5.64;82.69;102044.28;5087350;28;20472;-71
2022/05/02 01:36:49;;;;;;;26.95;19.50;;;;;;;5.63;83.00;102042.56;5082201;28;20235;-71
2022/05/02 01:39:15;;;;;;;25.75;19.20;;;;;;;5.60;83.13;102045.09;5071954;28;20029;-71
2022/05/02 01:41:40;;;;;;;25.92;19.13;;;;;;;5.53;83.57;102045.84;5077651;28;20039;-71
2022/05/02 01:44:06;;;;;;;25.90;19.70;;;;;;;5.49;83.49;102042.31;5091025;28;20035;-71
2022/05/02 01:46:31;;;;;;;26.75;19.85;;;;;;;5.49;83.46;102044.03;5076930;28;20032;-71
2022/05/02 01:48:58;;;;;;;31.88;19.65;;;;;;;5.47;83.61;102031.09;5090708;28;20039;-72
2022/05/02 01:51:24;;;;;;;27.65;19.75;;;;;;;5.48;83.82;102042.31;5083081;28;20024;-71
2022/05/02 01:53:49;;;;;;;26.88;19.10;;;;;;;5.45;84.06;102043.13;5090468;28;20032;-71
2022/05/02 01:56:14;;;;;;;29.17;19.88;;;;;;;5.45;83.91;102044.84;5087517;28;20111;-71
2022/05/02 01:58:40;;;;;;;28.52;20.08;;;;;;;5.41;84.17;102036.16;5070993;28;20033;-71
2022/05/02 02:01:05;;;;;;;26.35;19.58;;;;;;;5.35;84.30;102036.91;5076523;28;20510;-71
2022/05/02 02:03:30;;;;;;;26.25;20.08;;;;;;;5.28;84.60;102024.72;5086199;28;20114;-71
2022/05/02 02:05:58;;;;;;;30.27;20.45;;;;;;;5.28;84.52;102026.44;5094900;28;20020;-71
2022/05/02 02:08:27;;;;;;;25.33;19.25;;;;;;;5.27;84.72;102037.66;5073746;28;20042;-71
2022/05/02 02:10:55;;;;;;;29.13;20.02;;;;;;;5.21;85.01;102033.22;5089180;28;20039;-71
2022/05/02 02:13:20;;;;;;;26.42;19.25;;;;;;;5.16;85.10;102038.31;5092091;28;20032;-71
2022/05/02 02:15:46;;;;;;;30.08;20.65;;;;;;;5.14;85.22;102032.25;5093304;28;20040;-72
2022/05/02 02:18:12;;;;;;;28.58;19.48;;;;;;;5.11;85.45;102033.91;5090031;28;20038;-71
2022/05/02 02:20:37;;;;;;;29.67;19.83;;;;;;;5.08;85.51;102032.13;5084772;28;20036;-71
2022/05/02 02:23:03;;;;;;;27.13;19.88;;;;;;;5.06;85.56;102033.81;5079527;28;20444;-71
2022/05/02 02:25:28;;;;;;;28.27;19.00;;;;;;;5.04;85.68;102027.75;5093537;28;20031;-71
2022/05/02 02:27:54;;;;;;;30.55;20.30;;;;;;;5.03;85.79;102038.06;5082228;28;20499;-71
2022/05/02 02:30:19;;;;;;;30.25;20.33;;;;;;;4.97;85.82;102032.78;5080526;28;20035;-71
2022/05/02 02:32:45;;;;;;;30.90;21.02;;;;;;;4.96;85.73;102036.22;5092355;28;20036;-71
2022/05/02 02:35:11;;;;;;;29.75;21.13;;;;;;;4.96;86.00;102031.03;5094268;28;20479;-72
2022/05/02 02:37:36;;;;;;;28.75;19.90;;;;;;;4.89;85.98;102030.06;5082640;28;20020;-71
2022/05/02 02:40:03;;;;;;;29.30;20.85;;;;;;;4.91;86.31;102036.13;5075295;28;20097;-71
2022/05/02 02:42:28;;;;;;;27.75;20.45;;;;;;;4.88;86.32;102029.19;5073778;28;20476;-72
2022/05/02 02:44:53;;;;;;;29.52;19.92;;;;;;;4.86;86.75;102024.81;5091121;28;20024;-71
2022/05/02 02:47:18;;;;;;;28.95;19.65;;;;;;;4.83;86.66;102025.63;5092562;28;20024;-71
2022/05/02 02:49:44;;;;;;;29.17;20.83;;;;;;;4.87;86.69;102021.38;5090122;28;20039;-71
2022/05/02 02:52:09;;;;;;;26.40;19.52;;;;;;;4.85;87.00;102018.78;5087933;28;20503;-72
2022/05/02 02:54:35;;;;;;;28.75;20.33;;;;;;;4.86;87.32;102019.66;5092924;28;20024;-71
2022/05/02 02:57:00;;;;;;;29.73;20.17;;;;;;;4.85;87.21;102017.94;5093112;28;20047;-71
2022/05/02 02:59:26;;;;;;;28.25;19.80;;;;;;;4.82;87.06;102008.41;5082354;28;20043;-71
2022/05/02 03:01:51;;;;;;;27.33;19.80;;;;;;;4.80;87.61;102015.22;5078846;28;20025;-71
2022/05/02 03:07:01;;;;;;;27.10;19.45;;;;;;;4.73;87.62;102007.34;5085386;28;20066;-71
2022/05/02 03:09:28;;;;;;;26.85;19.70;;;;;;;4.67;87.80;102008.97;5075850;28;20111;-71
2022/05/02 03:11:53;;;;;;;28.63;19.50;;;;;;;4.59;88.42;102009.66;5076162;28;20040;-71
2022/05/02 03:14:19;;;;;;;32.97;20.85;;;;;;;4.50;88.74;102010.34;5074308;28;20028;-71
2022/05/02 03:16:44;;;;;;;29.05;20.27;;;;;;;4.41;88.71;102012.75;5080491;28;20040;-71
2022/05/02 03:19:09;;;;;;;31.55;20.25;;;;;;;4.37;88.87;102008.34;5073471;28;20035;-71
2022/05/02 03:21:35;;;;;;;29.90;20.02;;;;;;;4.37;89.04;102004.06;5072038;28;20373;-71
2022/05/02 03:24:00;;;;;;;28.83;20.23;;;;;;;4.37;88.68;102014.38;5073345;28;20028;-71
2022/05/02 03:26:25;;;;;;;29.25;19.83;;;;;;;4.31;89.31;102003.94;5081798;28;20123;-71
2022/05/02 03:28:50;;;;;;;28.42;19.92;;;;;;;4.26;89.46;102000.41;5081986;28;20039;-71
2022/05/02 03:31:16;;;;;;;29.33;19.70;;;;;;;4.19;89.73;102009.72;5075501;28;20028;-71
2022/05/02 03:33:41;;;;;;;32.78;19.67;;;;;;;4.16;89.81;102011.38;5093110;28;20028;-71
2022/05/02 03:36:06;;;;;;;27.10;19.50;;;;;;;4.14;90.24;102013.91;5088473;28;20028;-71
2022/05/02 03:38:31;;;;;;;28.40;19.83;;;;;;;4.16;89.88;102001.91;5091018;28;20089;-71
2022/05/02 03:40:57;;;;;;;28.13;19.80;;;;;;;4.14;90.04;102005.28;5075295;28;20024;-71
2022/05/02 03:43:22;;;;;;;25.95;18.88;;;;;;;4.07;90.52;102004.28;5083265;28;20024;-71
2022/05/02 03:45:47;;;;;;;25.50;17.83;;;;;;;4.05;90.25;101998.22;5086519;28;20032;-71
2022/05/02 03:48:13;;;;;;;27.45;18.95;;;;;;;4.03;89.99;102004.22;5088195;28;20038;-71
2022/05/02 03:50:38;;;;;;;28.30;18.33;;;;;;;3.98;90.25;102002.38;5092756;28;20051;-71
2022/05/02 03:53:04;;;;;;;30.55;19.65;;;;;;;3.96;90.45;102003.19;5086211;28;20107;-71
2022/05/02 03:55:29;;;;;;;27.15;18.13;;;;;;;3.90;90.63;102006.50;5090912;28;20040;-71
2022/05/02 03:57:54;;;;;;;28.05;19.02;;;;;;;3.87;90.22;102010.72;5091857;28;20364;-71
2022/05/02 04:00:20;;;;;;;29.98;18.95;;;;;;;3.84;90.28;102001.19;5086419;28;20032;-71
2022/05/02 04:02:45;;;;;;;27.33;18.85;;;;;;;3.71;90.73;101999.19;5074370;28;20024;-71
2022/05/02 04:05:11;;;;;;;27.83;18.52;;;;;;;3.74;90.44;102007.84;5091817;28;20544;-71
2022/05/02 04:07:36;;;;;;;28.77;18.58;;;;;;;3.74;90.86;102004.41;5091369;28;20063;-71
2022/05/02 04:10:03;;;;;;;27.02;18.08;;;;;;;3.75;91.29;102006.16;5091883;28;20036;-71
2022/05/02 04:12:35;;;;;;;31.38;19.40;;;;;;;3.73;91.49;102008.69;5081094;28;20033;-71
2022/05/02 04:15:00;;;;;;;29.40;19.92;;;;;;;3.72;91.11;102006.06;5075050;28;20035;-71
2022/05/02 04:17:25;;;;;;;26.88;19.65;;;;;;;3.70;90.72;102002.59;5082807;28;20028;-71
2022/05/02 04:19:51;;;;;;;35.30;20.08;;;;;;;3.73;90.74;101998.38;5091534;28;20038;-71
2022/05/02 04:22:16;;;;;;;28.23;19.70;;;;;;;3.73;90.68;101998.38;5076351;28;20037;-71
2022/05/02 04:24:41;;;;;;;28.75;19.80;;;;;;;3.71;91.07;102004.34;5072729;28;20032;-71
2022/05/02 04:27:06;;;;;;;31.98;20.95;;;;;;;3.73;91.43;102007.84;5071583;28;20043;-71
2022/05/02 04:29:32;;;;;;;29.75;20.55;;;;;;;3.75;91.09;102006.16;5079145;28;20032;-71
2022/05/02 04:31:57;;;;;;;33.35;20.20;;;;;;;3.75;91.56;102001.84;5084139;28;20021;-71
2022/05/02 04:34:22;;;;;;;29.58;19.67;;;;;;;3.80;91.12;102001.97;5090869;28;20100;-71
2022/05/02 04:36:47;;;;;;;27.98;19.58;;;;;;;3.84;91.08;101997.75;5087618;28;20028;-71
2022/05/02 04:39:13;;;;;;;31.98;19.55;;;;;;;3.85;91.27;102000.34;5072054;28;20043;-71
2022/05/02 04:41:38;;;;;;;27.85;19.48;;;;;;;3.91;91.64;102003.06;5073007;28;20403;-71
2022/05/02 04:44:03;;;;;;;28.17;19.90;;;;;;;3.95;91.60;102002.28;5091152;28;20024;-71
2022/05/02 04:46:29;;;;;;;31.73;20.67;;;;;;;4.04;91.30;102008.50;5089028;28;20055;-71
2022/05/02 04:48:54;;;;;;;30.23;20.45;;;;;;;4.08;91.17;102002.56;5086499;28;20016;-71
2022/05/02 04:51:19;;;;;;;30.80;20.60;;;;;;;4.09;91.39;102005.22;5089367;28;21932;-71
2022/05/02 04:53:44;;;;;;;30.20;19.88;;;;;;;4.13;91.75;101996.69;5091776;28;20028;-71
2022/05/02 04:56:10;;;;;;;29.13;20.25;;;;;;;4.22;91.96;102007.22;5086241;28;20040;-71
2022/05/02 04:58:35;;;;;;;29.23;20.63;;;;;;;4.27;91.95;102007.28;5082101;28;20021;-71
2022/05/02 05:01:04;;;;;;;29.38;19.42;;;;;;;4.35;91.53;102010.03;5075329;28;20064;-71
2022/05/02 05:03:29;;;;;;;30.65;20.60;;;;;;;4.40;92.55;102009.28;5077848;28;20048;-71
2022/05/02 05:05:55;;;;;;;30.05;19.73;;;;;;;4.48;92.29;102009.47;5070680;28;20491;-72
2022/05/02 05:08:20;;;;;;;31.15;21.35;;;;;;;4.54;92.09;102006.97;5090230;28;20032;-71
2022/05/02 05:11:05;;;;;;;28.00;20.60;;;;;;;4.63;92.38;102009.75;5091319;28;20384;-71
2022/05/02 05:13:39;;;;;;;30.77;20.67;;;;;;;4.68;92.08;102009.84;5073507;28;20063;-71
2022/05/02 05:16:32;;;;;;;30.02;21.25;;;;;;;4.80;91.98;101998.88;5074674;28;20128;-71
2022/05/02 05:19:14;;;;;;;30.42;22.08;;;;;;;4.91;91.89;102003.41;5087349;28;20086;-71
2022/05/02 05:22:12;;;;;;;32.75;22.00;;;;;;;5.01;92.00;102003.59;5089888;28;20055;-71
2022/05/02 05:24:46;;;;;;;35.95;22.90;;;;;;;5.15;91.26;102008.13;5091679;28;20050;-71
2022/05/02 05:27:22;;;;;;;32.03;22.83;;;;;;;5.25;91.27;102004.00;5083884;28;20025;-71
2022/05/02 05:30:07;;;;;;;35.95;24.05;;;;;;;5.36;91.70;101996.41;5083782;28;20111;-71
2022/05/02 05:33:11;;;;;;;36.70;24.70;;;;;;;5.48;90.38;102003.50;5080078;28;20376;-71
2022/05/02 05:36:00;;;;;;;35.55;24.77;;;;;;;5.60;89.95;101999.41;5088959;28;20035;-71
2022/05/02 05:38:49;;;;;;;37.55;25.10;;;;;;;5.73;90.97;102000.47;5095008;28;20029;-71
2022/05/02 05:41:29;;;;;;;39.92;25.88;;;;;;;5.86;90.20;101999.78;5092260;28;20024;-71
2022/05/02 05:44:01;;;;;;;42.45;27.55;;;;;;;5.96;90.29;101994.78;5074357;28;20105;-71
2022/05/02 05:46:35;;;;;;;40.20;27.63;;;;;;;6.07;89.32;102001.81;5091706;28;20035;-71
2022/05/02 05:49:22;;;;;;;44.25;28.77;;;;;;;6.19;89.01;102003.72;5089812;28;20033;-71
2022/05/02 05:51:59;;;;;;;40.72;27.35;;;;;;;6.31;87.53;102003.88;5088983;28;20031;-71
2022/05/02 05:54:37;;;;;;;40.03;27.77;;;;;;;6.42;87.92;102001.41;5085986;28;20036;-71
2022/05/02 05:57:45;;;;;;;41.25;27.63;;;;;;;6.52;86.67;102002.41;5085274;28;20165;-71
2022/05/02 06:00:12;;;;;;;39.60;26.73;;;;;;;6.63;86.11;102011.16;5084422;28;20122;-70
2022/05/02 06:02:56;;;;;;;39.92;28.50;;;;;;;6.74;86.10;102013.88;5089133;28;21370;-72
2022/05/02 06:05:22;;;;;;;37.70;26.98;;;;;;;6.86;85.16;102007.94;5083536;28;20406;-71
2022/05/02 06:07:50;;;;;;;40.70;27.83;;;;;;;6.96;84.21;102014.97;5082892;28;20042;-71
2022/05/02 06:10:17;;;;;;;38.83;28.00;;;;;;;7.04;84.44;102013.34;5088469;28;20073;-71
2022/05/02 06:12:44;;;;;;;40.70;27.95;;;;;;;7.14;82.94;102007.38;5094596;28;20467;-71
2022/05/02 06:20:45;;;;;;;36.03;26.10;;;;;;;7.46;82.56;102011.97;5094733;28;20038;-71
2022/05/02 06:23:15;;;;;;;36.28;25.85;;;;;;;7.52;80.99;102006.84;5087380;28;20105;-71
2022/05/02 06:25:43;;;;;;;37.85;26.60;;;;;;;7.64;82.08;102012.09;5086874;28;20383;-72
2022/05/02 06:28:09;;;;;;;35.60;24.80;;;;;;;7.77;80.83;102007.00;5094353;28;20024;-72
2022/05/02 06:30:36;;;;;;;36.00;25.70;;;;;;;7.85;81.80;102016.59;5094020;28;20476;-71
2022/05/02 06:33:10;;;;;;;35.45;24.85;;;;;;;7.95;80.66;102014.94;5091708;28;20436;-71
2022/05/02 06:35:47;;;;;;;33.03;24.00;;;;;;;8.08;79.60;102013.28;5094034;28;20515;-71
2022/05/02 06:38:26;;;;;;;38.13;24.88;;;;;;;8.16;79.50;101999.44;5093647;28;20045;-71
2022/05/02 06:41:25;;;;;;;34.63;23.33;;;;;;;8.30;79.06;102009.03;5094249;28;20036;-71
2022/05/02 06:44:25;;;;;;;37.45;23.65;;;;;;;8.40;78.17;102006.53;5093434;28;20047;-71
2022/05/02 06:46:59;;;;;;;34.22;22.80;;;;;;;8.52;77.35;102004.84;5093635;28;20032;-71
2022/05/02 06:49:25;;;;;;;31.73;22.92;;;;;;;8.61;76.90;102010.94;5094009;28;20020;-71
2022/05/02 06:51:54;;;;;;;34.55;22.42;;;;;;;8.70;76.77;102006.59;5093463;28;20042;-71
2022/05/02 06:54:53;;;;;;;30.67;22.13;;;;;;;8.83;77.00;102011.00;5093918;28;20032;-71
2022/05/02 06:57:43;;;;;;;29.80;22.08;;;;;;;8.98;75.51;102005.81;5093589;28;20372;-72
2022/05/02 07:00:10;;;;;;;32.78;22.70;;;;;;;9.07;75.56;101998.03;5093266;28;20039;-71
2022/05/02 07:03:03;;;;;;;34.28;21.70;;;;;;;9.21;74.96;102002.38;5093688;28;20036;-71
2022/05/02 07:05:45;;;;;;;34.53;21.98;;;;;;;9.32;74.41;102001.53;5093278;28;20016;-71
2022/05/02 07:08:18;;;;;;;28.80;21.60;;;;;;;9.43;74.18;102004.13;5093730;28;20032;-71
2022/05/02 07:10:43;;;;;;;28.73;20.52;;;;;;;9.59;72.81;102003.25;5093450;28;20133;-71
2022/05/02 07:13:29;;;;;;;26.30;20.15;;;;;;;9.73;72.05;102007.56;5092907;28;20060;-71
2022/05/02 07:16:10;;;;;;;28.83;19.77;;;;;;;9.85;71.99;102007.56;5093326;28;20062;-71
2022/05/02 07:18:56;;;;;;;24.75;19.15;;;;;;;9.94;70.50;102004.03;5093392;28;20441;-71
2022/05/02 07:21:51;;;;;;;26.08;18.10;;;;;;;10.01;70.52;102003.19;5093062;28;20043;-72
2022/05/02 07:24:51;;;;;;;31.23;18.80;;;;;;;10.13;70.27;102000.53;5092892;28;20036;-72
2022/05/02 07:27:38;;;;;;;31.42;18.23;;;;;;;10.27;69.87;102000.53;5090536;28;20487;-71
2022/05/02 07:30:04;;;;;;;25.23;17.73;;;;;;;10.35;69.80;101998.75;5083466;28;20032;-71
2022/05/02 07:32:32;;;;;;;23.35;18.25;;;;;;;10.46;69.41;102001.31;5093103;28;20028;-71
2022/05/02 07:34:59;;;;;;;26.60;18.30;;;;;;;10.57;67.43;101996.06;5092870;28;20418;-72
2022/05/02 07:37:24;;;;;;;27.08;18.75;;;;;;;10.68;68.31;102002.06;5093222;28;20387;-72
2022/05/02 07:39:52;;;;;;;26.48;18.20;;;;;;;10.72;67.07;101998.56;5092783;28;20102;-71
2022/05/02 07:42:22;;;;;;;22.45;17.08;;;;;;;10.87;65.45;101995.88;5089861;28;20051;-71
2022/05/02 07:44:51;;;;;;;24.80;16.88;;;;;;;11.04;66.37;101995.75;5073956;28;20032;-71
2022/05/02 07:47:17;;;;;;;21.60;16.83;;;;;;;11.18;65.85;101986.09;5075301;28;20145;-71
2022/05/02 07:49:50;;;;;;;24.52;16.73;;;;;;;11.28;63.91;101997.34;5080970;28;20036;-69
2022/05/02 07:52:24;;;;;;;22.35;15.57;;;;;;;11.38;64.27;101995.47;5079964;28;20067;-71
2022/05/02 07:54:52;;;;;;;22.92;16.00;;;;;;;11.48;62.56;101995.41;5082581;28;20024;-71
2022/05/02 07:57:20;;;;;;;20.27;14.77;;;;;;;11.60;61.60;102001.41;5075287;28;20020;-71
2022/05/02 07:59:50;;;;;;;22.15;15.90;;;;;;;11.69;60.80;102004.78;5088213;28;20024;-71
2022/05/02 08:02:16;;;;;;;22.20;15.80;;;;;;;11.77;59.82;101998.63;5092055;28;20122;-71
2022/05/02 08:04:44;;;;;;;19.73;15.07;;;;;;;11.83;59.38;101998.56;5075136;28;20108;-71
2022/05/02 08:07:15;;;;;;;20.80;15.27;;;;;;;11.92;60.53;102001.97;5071934;28;20541;-71
2022/05/02 08:10:09;;;;;;;20.60;15.43;;;;;;;12.00;59.56;102007.13;5082864;28;20028;-71
2022/05/02 08:12:54;;;;;;;18.90;14.80;;;;;;;12.07;60.45;102006.19;5085812;28;20029;-72
2022/05/02 08:15:37;;;;;;;17.77;13.60;;;;;;;12.15;58.30;101998.25;5078857;28;20024;-71
2022/05/02 08:18:40;;;;;;;20.53;12.97;;;;;;;12.25;58.36;101999.88;5077690;28;20036;-71
2022/05/02 08:21:15;;;;;;;18.15;13.38;;;;;;;12.29;55.08;101998.06;5085794;28;20370;-71
2022/05/02 08:27:17;;;;;;;17.92;12.25;;;;;;;12.44;57.16;101990.06;5071846;28;20059;-71
2022/05/02 08:29:45;;;;;;;21.00;13.10;;;;;;;12.55;55.35;101996.00;5080657;28;20534;-71
2022/05/02 08:32:28;;;;;;;17.13;12.77;;;;;;;12.65;56.31;101986.28;5076862;28;20058;-71
2022/05/02 08:35:07;;;;;;;19.50;13.93;;;;;;;12.74;56.27;101988.75;5078876;28;20028;-71
2022/05/02 08:37:38;;;;;;;20.70;13.50;;;;;;;12.81;54.38;101994.78;5077561;28;20028;-71
2022/05/02 08:40:23;;;;;;;14.95;10.75;;;;;;;12.91;54.31;101990.28;5071561;28;20043;-71
2022/05/02 08:43:16;;;;;;;18.92;11.73;;;;;;;13.05;54.42;101990.94;5075959;28;20027;-71
2022/05/02 08:46:02;;;;;;;16.15;12.38;;;;;;;13.13;54.62;101989.91;5091445;28;20042;-71
2022/05/02 08:52:21;;;;;;;17.02;12.65;;;;;;;13.46;53.84;101986.81;5058062;28;20043;-72
2022/05/02 08:55:04;;;;;;;17.90;13.32;;;;;;;13.54;52.11;101984.94;5089710;28;20031;-71
2022/05/02 08:58:07;;;;;;;17.85;12.80;;;;;;;13.69;52.23;101986.41;5089080;28;20042;-71
2022/05/02 09:00:39;;;;;;;18.77;12.00;;;;;;;13.80;51.11;101987.94;5080600;28;20040;-72
2022/05/02 09:03:29;;;;;;;15.73;11.80;;;;;;;13.90;51.37;101982.53;5078236;28;20442;-71
2022/05/02 09:06:32;;;;;;;15.98;11.07;;;;;;;14.06;51.53;101981.34;5078771;28;20024;-71
2022/05/02 09:09:03;;;;;;;18.60;11.75;;;;;;;14.29;49.52;101975.63;5075475;28;20032;-71
2022/05/02 09:11:33;;;;;;;16.85;11.57;;;;;;;14.45;49.04;101978.75;5075246;28;20032;-70
2022/05/02 09:14:12;;;;;;;13.02;9.88;;;;;;;14.61;48.80;101974.06;5084218;28;20025;-70
2022/05/02 09:16:56;;;;;;;15.80;11.48;;;;;;;14.77;46.75;101978.09;5076277;28;20028;-71
2022/05/02 09:19:42;;;;;;;17.02;12.50;;;;;;;14.95;47.83;101976.81;5087857;28;20140;-71
2022/05/02 09:22:35;;;;;;;15.15;11.13;;;;;;;15.12;47.82;101974.63;5090129;28;20040;-71
2022/05/02 09:25:08;;;;;;;11.17;9.73;;;;;;;15.44;47.63;101972.97;5095580;28;20403;-71
2022/05/02 09:27:38;;;;;;;12.13;9.45;;;;;;;15.55;44.03;101968.28;5094435;28;20024;-71
2022/05/02 09:30:40;;;;;;;13.77;10.40;;;;;;;15.62;45.30;101969.00;5095616;28;20016;-71
2022/05/02 09:33:41;;;;;;;15.27;10.55;;;;;;;15.57;45.37;101968.25;5094769;28;20545;-70
2022/05/02 09:36:22;;;;;;;12.82;10.50;;;;;;;15.59;44.73;101964.66;5043871;28;20033;-70
2022/05/02 09:38:51;;;;;;;16.13;12.50;;;;;;;15.59;44.13;101972.56;5095287;28;20037;-71
2022/05/02 09:41:39;;;;;;;16.55;12.38;;;;;;;15.54;45.88;101970.97;5075601;28;20025;-70
2022/05/02 09:51:18;;;;;;;17.30;11.10;;;;;;;15.62;44.41;101963.72;5011792;28;20045;-72
2022/05/02 09:57:22;;;;;;;17.80;12.43;;;;;;;15.57;42.96;101940.22;5012999;28;20074;-71
2022/05/02 10:01:06;;;;;;;15.68;11.05;;;;;;;15.68;43.39;101947.84;5094015;28;20383;-72
2022/05/02 10:02:45;;;;;;;15.02;10.48;;;;;;;15.85;42.60;101942.97;5094170;28;20071;-72
2022/05/02 10:05:36;;;;;;;14.85;11.05;;;;;;;16.03;43.01;101949.47;5094937;28;20028;-72
2022/05/02 10:08:12;;;;;;;15.68;10.05;;;;;;;16.20;42.78;101945.50;5077925;28;20032;-72
2022/05/02 10:10:46;;;;;;;14.30;10.30;;;;;;;16.29;41.21;101940.84;5077842;28;20080;-71
2022/05/02 10:13:50;;;;;;;14.65;9.65;;;;;;;16.31;41.65;101939.00;5094637;28;20028;-72
2022/05/02 10:16:57;;;;;;;12.60;9.45;;;;;;;16.44;42.07;101943.91;5055922;28;20514;-72
2022/05/02 10:19:44;;;;;;;12.48;9.48;;;;;;;16.57;42.85;101938.19;5074370;28;20052;-72
2022/05/02 10:22:42;;;;;;;14.32;10.48;;;;;;;16.70;42.55;101935.19;5072942;28;20062;-72
2022/05/02 10:25:24;;;;;;;14.80;9.75;;;;;;;16.79;41.14;101934.94;5075589;28;20586;-71
2022/05/02 10:28:13;;;;;;;11.75;9.18;;;;;;;16.82;39.89;101929.56;5074254;28;20028;-71
2022/05/02 10:30:59;;;;;;;14.70;10.45;;;;;;;16.84;39.39;101927.78;5073702;28;20028;-71
2022/05/02 10:33:44;;;;;;;11.70;9.25;;;;;;;16.83;42.24;101918.97;5073494;28;20037;-73
2022/05/02 10:36:10;;;;;;;13.30;10.25;;;;;;;16.96;39.91;101929.13;5073618;28;20025;-75
2022/05/02 10:38:48;;;;;;;13.43;10.50;;;;;;;16.83;39.69;101916.34;5073802;28;20036;-76
2022/05/02 10:41:19;;;;;;;16.65;10.90;;;;;;;16.92;39.92;101911.69;5073744;28;20140;-78
2022/05/02 10:43:56;;;;;;;15.15;10.00;;;;;;;16.99;40.08;101921.97;5074599;28;20052;-76
2022/05/02 10:46:21;;;;;;;13.18;10.48;;;;;;;17.18;40.38;101916.97;5073542;28;20032;-75
2022/05/02 10:49:05;;;;;;;14.50;10.23;;;;;;;17.47;40.79;101917.72;5073055;28;20038;-76
2022/05/02 10:51:51;;;;;;;13.55;10.63;;;;;;;17.54;37.58;101917.44;5072751;28;20044;-75
2022/05/02 10:54:19;;;;;;;16.40;10.68;;;;;;;17.46;36.20;101908.09;5081258;28;20106;-75
2022/05/02 10:56:47;;;;;;;14.00;11.02;;;;;;;17.31;36.44;101909.50;5092918;28;20036;-76
2022/05/02 10:59:22;;;;;;;13.68;10.30;;;;;;;17.41;38.75;101891.59;5089626;28;20020;-76
2022/05/02 11:01:54;;;;;;;13.23;10.40;;;;;;;17.72;39.45;101901.88;5072102;28;20036;-73
2022/05/02 11:04:48;;;;;;;16.25;10.82;;;;;;;18.06;38.55;101895.41;5072745;28;20021;-76
2022/05/02 11:07:31;;;;;;;12.50;9.90;;;;;;;18.16;37.38;101894.97;5078508;28;20032;-75
2022/05/02 11:10:09;;;;;;;11.80;9.82;;;;;;;18.29;36.89;101898.00;5073466;28;20086;-76
2022/05/02 11:13:09;;;;;;;12.60;10.60;;;;;;;18.37;36.63;101885.34;5072844;28;20024;-76
2022/05/02 11:15:57;;;;;;;25.58;17.05;;;;;;;18.51;37.80;101892.75;5073374;28;20028;-76
2022/05/02 11:21:18;;;;;;;22.48;11.57;;;;;;;18.89;36.80;101885.06;5074985;28;20511;-76
2022/05/02 11:23:55;;;;;;;14.00;9.73;;;;;;;19.01;37.92;101884.53;5073104;28;20063;-76
2022/05/02 11:26:37;;;;;;;13.25;9.90;;;;;;;19.21;35.74;101882.84;5072072;28;20123;-74
2022/05/02 11:29:44;;;;;;;17.77;11.02;;;;;;;19.31;36.65;101871.78;5081436;28;20035;-77
2022/05/02 11:32:37;;;;;;;13.93;10.45;;;;;;;19.46;36.79;101872.91;5085931;28;20408;-75
2022/05/02 11:35:16;;;;;;;15.97;10.47;;;;;;;19.46;35.20;101882.63;5089357;28;20073;-76
2022/05/02 11:38:09;;;;;;;12.82;10.10;;;;;;;19.58;37.19;101869.69;5092837;28;20050;-76
2022/05/02 11:40:42;;;;;;;14.48;9.98;;;;;;;19.83;34.90;101869.50;5079363;28;20077;-77
2022/05/02 11:43:09;;;;;;;;;;;;;;;20.24;36.45;101868.47;5073321;28;20033;-77
2022/05/02 11:45:47;;;;;;;14.43;9.75;;;;;;;20.85;33.87;101864.66;5078140;28;19923;-73
2022/05/02 11:48:35;;;;;;;12.80;10.23;;;;;;;21.68;31.99;101867.41;5073046;28;20086;-73
2022/05/02 11:51:06;;;;;;;12.38;9.60;;;;;;;23.01;30.33;101874.97;5072916;28;20076;-73
2022/05/02 11:53:35;;;;;;;13.75;11.30;;;;;;;23.79;26.71;101858.72;5072172;28;20109;-73
2022/05/02 11:56:05;;;;;;;13.63;10.27;;;;;;;24.38;26.85;101855.81;5072689;28;20049;-73
2022/05/02 11:58:44;;;;;;;13.20;10.65;;;;;;;25.27;27.07;101853.38;5072238;28;20064;-73
2022/05/02 12:01:10;;;;;;;13.95;10.07;;;;;;;25.80;25.53;101851.44;5071446;28;20070;-73
2022/05/02 12:03:42;;;;;;;12.68;9.95;;;;;;;26.29;25.70;101857.66;5072453;28;20078;-73
2022/05/02 12:06:09;;;;;;;12.70;10.13;;;;;;;26.74;23.98;101848.06;5072059;28;20046;-73
2022/05/02 12:08:38;;;;;;;11.48;10.07;;;;;;;27.41;22.87;101844.69;5071788;28;20040;-73
2022/05/02 12:11:06;;;;;;;15.90;10.98;;;;;;;27.83;22.39;101841.41;5072252;28;20028;-73